Time;durP1;ratioP1;P1;durP2;ratioP2;P2;SDS_P1;SDS_P2;PMS_P1;PMS_P2;Temp;Humidity;BMP_temperature;BMP_pressure;BME280_temperature;BME280_humidity;BME280_pressure;Samples;Min_cycle;Max_cycle;Signal;HPM_P1;HPM_P2
2022/09/08 00:00:58;;;;;;;0.90;0.63;;;16.70;99.90;;;;;;5054748;28;20071;-74
2022/09/08 00:03:27;;;;;;;0.63;0.63;;;16.70;99.90;;;;;;5055041;28;20399;-72
2022/09/08 00:06:07;;;;;;;0.60;0.60;;;16.80;99.90;;;;;;5072538;28;20056;-73
2022/09/08 00:08:34;;;;;;;0.70;0.55;;;16.90;99.90;;;;;;5038326;28;20437;-73
2022/09/08 00:11:03;;;;;;;1.40;1.00;;;16.90;99.90;;;;;;5054819;28;20399;-73
2022/09/08 00:13:32;;;;;;;0.98;0.70;;;16.90;99.90;;;;;;5054841;28;20053;-73
2022/09/08 00:16:01;;;;;;;0.90;0.85;;;16.90;99.90;;;;;;5054555;28;20544;-73
2022/09/08 00:18:27;;;;;;;1.23;0.90;;;16.90;99.90;;;;;;5054318;28;20594;-73
2022/09/08 00:20:53;;;;;;;0.90;0.90;;;16.90;99.90;;;;;;5054289;28;20048;-73
2022/09/08 00:23:19;;;;;;;0.73;0.70;;;16.80;99.90;;;;;;5021361;28;20048;-81
2022/09/08 00:25:45;;;;;;;;;;;16.80;99.90;;;;;;5055011;28;20047;-81
2022/09/08 00:28:12;;;;;;;0.70;0.70;;;16.80;99.90;;;;;;5054288;28;20007;-81
2022/09/08 00:30:37;;;;;;;0.60;0.60;;;16.80;99.90;;;;;;5054154;28;20040;-80
2022/09/08 00:33:03;;;;;;;0.90;0.77;;;16.80;99.90;;;;;;5054521;28;20040;-81
2022/09/08 00:35:29;;;;;;;1.35;0.82;;;16.70;99.90;;;;;;5037824;28;20492;-80
2022/09/08 00:37:55;;;;;;;1.00;0.90;;;16.70;99.90;;;;;;5053954;28;20060;-81
2022/09/08 00:40:23;;;;;;;1.33;1.08;;;16.70;99.90;;;;;;5053688;28;20107;-83
2022/09/08 00:43:04;;;;;;;1.20;1.10;;;16.70;99.90;;;;;;5054048;28;20044;-81
2022/09/08 00:45:43;;;;;;;1.60;1.48;;;16.80;99.90;;;;;;5054019;28;20113;-81
2022/09/08 00:48:16;;;;;;;1.92;1.40;;;16.80;99.90;;;;;;5054048;28;20459;-82
2022/09/08 00:50:43;;;;;;;1.40;1.30;;;16.80;99.90;;;;;;5054015;28;20040;-73
2022/09/08 00:53:13;;;;;;;1.50;1.20;;;16.80;99.90;;;;;;5053785;28;20052;-73
2022/09/08 00:55:39;;;;;;;1.30;1.20;;;16.80;99.90;;;;;;5053652;28;20135;-73
2022/09/08 00:58:06;;;;;;;1.20;1.10;;;16.80;99.90;;;;;;5053765;28;20043;-73
2022/09/08 01:00:35;;;;;;;1.45;1.15;;;16.80;99.90;;;;;;5053946;28;20381;-72
2022/09/08 01:03:02;;;;;;;1.55;1.30;;;16.70;99.90;;;;;;5053613;28;20084;-72
2022/09/08 01:05:37;;;;;;;1.80;1.40;;;16.70;99.90;;;;;;5037068;28;20385;-73
2022/09/08 01:14:00;;;;;;;1.00;0.90;;;16.60;99.90;;;;;;5053706;28;20131;-81
2022/09/08 01:16:26;;;;;;;2.97;2.53;;;16.60;99.90;;;;;;5053514;28;20045;-80
2022/09/08 01:18:54;;;;;;;1.83;1.73;;;16.60;99.90;;;;;;5036860;28;20040;-81
2022/09/08 01:21:34;;;;;;;2.55;2.22;;;16.70;99.90;;;;;;5053540;28;20047;-80
2022/09/08 01:24:09;;;;;;;1.55;1.40;;;16.60;99.90;;;;;;5053066;28;20039;-80
2022/09/08 01:26:34;;;;;;;1.58;1.42;;;16.60;99.90;;;;;;5053068;28;20051;-81
2022/09/08 01:29:02;;;;;;;2.30;2.08;;;16.60;99.90;;;;;;5053165;28;20036;-81
2022/09/08 01:31:31;;;;;;;2.70;1.90;;;16.50;99.90;;;;;;5053092;28;20037;-81
2022/09/08 01:33:59;;;;;;;2.40;2.20;;;16.60;99.90;;;;;;5053335;28;20188;-81
2022/09/08 01:36:25;;;;;;;2.15;1.80;;;16.60;99.90;;;;;;5036433;28;20178;-81
2022/09/08 01:38:51;;;;;;;2.67;2.10;;;16.60;99.90;;;;;;5052439;28;20176;-80
2022/09/08 01:41:16;;;;;;;2.17;1.80;;;16.70;99.90;;;;;;5020094;28;20551;-80
2022/09/08 01:43:42;;;;;;;1.70;1.50;;;16.70;99.90;;;;;;5053190;28;20047;-79
2022/09/08 01:46:08;;;;;;;2.40;2.03;;;16.60;99.90;;;;;;5036340;28;20238;-80
2022/09/08 01:48:34;;;;;;;;;;;16.70;99.90;;;;;;5053808;28;20420;-81
2022/09/08 01:51:02;;;;;;;3.65;3.35;;;16.70;99.90;;;;;;5053692;28;19920;-82
2022/09/08 01:53:28;;;;;;;4.50;4.10;;;16.70;99.90;;;;;;5053071;28;20041;-81
2022/09/08 01:55:55;;;;;;;3.20;2.90;;;16.80;99.90;;;;;;5036470;28;20113;-81
2022/09/08 01:58:21;;;;;;;3.90;3.50;;;16.80;99.90;;;;;;5053090;28;20147;-81
2022/09/08 02:00:46;;;;;;;3.50;3.20;;;16.90;99.90;;;;;;5036333;28;20136;-81
2022/09/08 02:03:12;;;;;;;3.30;3.00;;;16.90;99.90;;;;;;5053026;28;20037;-73
2022/09/08 02:05:39;;;;;;;3.90;3.30;;;16.90;99.90;;;;;;5036270;28;20076;-73
2022/09/08 02:08:06;;;;;;;2.58;2.38;;;16.90;99.90;;;;;;5052950;28;20439;-73
2022/09/08 02:10:31;;;;;;;4.38;2.95;;;16.90;99.90;;;;;;5052597;28;20120;-73
2022/09/08 02:12:57;;;;;;;3.72;3.33;;;17.00;99.90;;;;;;5036000;28;20154;-72
2022/09/08 02:15:23;;;;;;;2.90;2.55;;;17.00;99.90;;;;;;5052871;28;20056;-73
2022/09/08 02:17:49;;;;;;;3.42;3.10;;;17.00;99.90;;;;;;5036346;28;20442;-72
2022/09/08 02:20:15;;;;;;;3.78;3.38;;;17.00;99.90;;;;;;5070791;28;20468;-73
2022/09/08 02:22:41;;;;;;;3.00;2.70;;;16.90;99.90;;;;;;5035736;28;20120;-72
2022/09/08 02:25:07;;;;;;;4.25;3.85;;;17.00;99.90;;;;;;5052373;28;20516;-73
2022/09/08 02:27:33;;;;;;;3.65;2.97;;;17.00;99.90;;;;;;5036135;28;20123;-73
2022/09/08 02:29:59;;;;;;;4.80;4.38;;;17.00;99.90;;;;;;5052881;28;20434;-73
2022/09/08 02:32:25;;;;;;;4.10;3.70;;;17.00;99.90;;;;;;5052729;28;20542;-75
2022/09/08 02:34:52;;;;;;;;;;;17.00;99.90;;;;;;5053243;28;20040;-73
2022/09/08 02:37:18;;;;;;;3.45;3.15;;;17.00;99.90;;;;;;5052797;28;19920;-73
2022/09/08 02:39:44;;;;;;;2.97;2.67;;;16.90;99.90;;;;;;5052223;28;20056;-73
2022/09/08 02:42:11;;;;;;;3.33;2.90;;;17.00;99.90;;;;;;5052372;28;20052;-73
2022/09/08 02:44:38;;;;;;;4.07;3.38;;;17.10;99.90;;;;;;5052248;28;20511;-74
2022/09/08 02:47:04;;;;;;;3.83;3.33;;;17.10;99.90;;;;;;5035685;28;20067;-73
2022/09/08 02:49:31;;;;;;;4.35;3.95;;;17.00;99.90;;;;;;5052315;28;20578;-82
2022/09/08 02:51:58;;;;;;;4.15;3.63;;;17.00;99.90;;;;;;5055772;28;20524;-82
2022/09/08 02:54:23;;;;;;;;;;;17.00;99.90;;;;;;5056695;28;20345;-81
2022/09/08 02:56:49;;;;;;;3.50;3.08;;;17.00;99.90;;;;;;5055989;28;19970;-83
2022/09/08 02:59:15;;;;;;;5.65;4.80;;;17.00;99.90;;;;;;5056124;28;20040;-81
2022/09/08 03:01:43;;;;;;;4.00;3.60;;;17.10;99.90;;;;;;5056196;28;20481;-81
2022/09/08 03:04:12;;;;;;;3.03;2.63;;;17.10;99.90;;;;;;5055859;28;20388;-82
2022/09/08 03:06:38;;;;;;;3.45;3.15;;;17.10;99.90;;;;;;5055717;28;20045;-81
2022/09/08 03:09:05;;;;;;;3.50;3.20;;;17.20;99.90;;;;;;5055826;28;20140;-81
2022/09/08 03:11:31;;;;;;;4.57;4.18;;;17.10;99.90;;;;;;5039332;28;20545;-82
2022/09/08 03:14:00;;;;;;;;;;;17.10;99.90;;;;;;5056156;28;20083;-81
2022/09/08 03:16:27;;;;;;;3.00;2.70;;;17.10;99.90;;;;;;5022685;28;19999;-72
2022/09/08 03:18:53;;;;;;;2.40;2.20;;;17.10;99.90;;;;;;5055831;28;20456;-72
2022/09/08 03:21:20;;;;;;;3.08;2.70;;;17.10;99.90;;;;;;5039332;28;20055;-74
2022/09/08 03:23:46;;;;;;;3.38;3.08;;;17.10;99.90;;;;;;5055767;28;20377;-74
2022/09/08 03:26:15;;;;;;;3.35;3.05;;;17.10;99.90;;;;;;5038617;28;20105;-74
2022/09/08 03:28:42;;;;;;;3.97;3.25;;;17.10;99.90;;;;;;5055436;28;20110;-74
2022/09/08 03:31:14;;;;;;;2.90;2.65;;;17.10;99.90;;;;;;5055450;28;20079;-74
2022/09/08 03:33:40;;;;;;;2.50;2.30;;;17.10;99.90;;;;;;5038721;28;20044;-74
2022/09/08 03:36:08;;;;;;;2.22;2.03;;;17.10;99.90;;;;;;5055037;28;20076;-73
2022/09/08 03:38:35;;;;;;;2.45;2.25;;;17.00;99.90;;;;;;5055249;28;20067;-73
2022/09/08 03:41:08;;;;;;;2.38;2.17;;;17.00;99.90;;;;;;5055361;28;20064;-73
2022/09/08 03:43:34;;;;;;;2.88;2.60;;;17.00;99.90;;;;;;5055078;28;20124;-73
2022/09/08 03:46:00;;;;;;;;;;;16.90;99.90;;;;;;5055283;28;20104;-74
2022/09/08 03:48:26;;;;;;;2.97;2.60;;;17.00;99.90;;;;;;5055029;28;19971;-74
2022/09/08 03:50:51;;;;;;;;;;;17.10;99.90;;;;;;5055437;28;20036;-73
2022/09/08 03:53:17;;;;;;;2.92;2.63;;;16.90;99.90;;;;;;5054971;28;19916;-73
2022/09/08 03:55:43;;;;;;;2.30;2.10;;;16.90;99.90;;;;;;5054878;28;20161;-73
2022/09/08 03:58:09;;;;;;;;;;;17.00;99.90;;;;;;5039021;28;20490;-82
2022/09/08 04:00:35;;;;;;;2.00;1.80;;;17.00;99.90;;;;;;5055044;28;20404;-82
2022/09/08 04:03:02;;;;;;;2.28;2.08;;;17.00;99.90;;;;;;5054123;28;20151;-81
2022/09/08 04:05:27;;;;;;;2.13;1.80;;;17.00;99.90;;;;;;5054732;28;20720;-81
2022/09/08 04:07:53;;;;;;;2.30;2.10;;;17.10;99.90;;;;;;5038163;28;20056;-82
2022/09/08 04:10:19;;;;;;;3.50;3.20;;;17.00;99.90;;;;;;5038353;28;20055;-81
2022/09/08 04:12:46;;;;;;;3.10;2.80;;;17.10;99.90;;;;;;5054819;28;20040;-81
2022/09/08 04:15:13;;;;;;;3.60;3.30;;;17.10;99.90;;;;;;5054905;28;20052;-81
2022/09/08 04:17:39;;;;;;;3.22;2.88;;;17.20;99.90;;;;;;5054436;28;20055;-81
2022/09/08 04:20:06;;;;;;;2.70;2.50;;;17.10;99.90;;;;;;5037904;28;20085;-81
2022/09/08 04:22:32;;;;;;;2.50;2.30;;;17.10;99.90;;;;;;5021397;28;20075;-81
2022/09/08 04:24:58;;;;;;;2.60;2.38;;;17.10;99.90;;;;;;5054451;28;20079;-82
2022/09/08 04:27:24;;;;;;;1.90;1.70;;;17.10;99.90;;;;;;5037678;28;20591;-82
2022/09/08 04:29:50;;;;;;;2.90;2.60;;;17.10;99.90;;;;;;5054222;28;20127;-81
2022/09/08 04:32:16;;;;;;;2.92;2.63;;;17.20;99.90;;;;;;5054023;28;20116;-81
2022/09/08 04:34:42;;;;;;;;;;;17.20;99.90;;;;;;5038371;28;20180;-81
2022/09/08 04:37:08;;;;;;;2.75;2.42;;;17.20;99.90;;;;;;5054481;28;20026;-81
2022/09/08 04:39:33;;;;;;;;;;;17.20;99.90;;;;;;5054306;28;20793;-81
2022/09/08 04:41:59;;;;;;;3.80;3.50;;;17.20;99.90;;;;;;5054357;28;19927;-81
2022/09/08 04:44:25;;;;;;;4.10;3.70;;;17.30;99.90;;;;;;5054069;28;20052;-81
2022/09/08 04:46:51;;;;;;;2.85;2.55;;;17.20;99.90;;;;;;5053904;28;20040;-80
2022/09/08 04:49:17;;;;;;;2.45;2.25;;;17.20;99.90;;;;;;5037155;28;20395;-81
2022/09/08 04:51:43;;;;;;;;;;;17.20;99.90;;;;;;5054068;28;20052;-81
2022/09/08 04:54:09;;;;;;;4.18;3.78;;;17.30;99.90;;;;;;5037288;28;19923;-81
2022/09/08 04:56:35;;;;;;;4.03;3.58;;;17.30;99.90;;;;;;5053908;28;20445;-73
2022/09/08 04:59:02;;;;;;;3.47;3.17;;;17.40;99.90;;;;;;5053930;28;20097;-73
2022/09/08 05:01:35;;;;;;;3.08;2.78;;;17.20;99.90;;;;;;5053716;28;20044;-81
2022/09/08 05:04:01;;;;;;;4.25;3.85;;;17.30;99.90;;;;;;5053883;28;20125;-80
2022/09/08 05:06:32;;;;;;;3.60;3.30;;;17.40;99.90;;;;;;5053663;28;20042;-80
2022/09/08 05:08:59;;;;;;;5.18;4.70;;;17.40;99.90;;;;;;5053395;28;20053;-80
2022/09/08 05:11:27;;;;;;;6.75;6.05;;;17.40;99.90;;;;;;5053545;28;20111;-80
2022/09/08 05:13:53;;;;;;;5.00;4.50;;;17.40;99.90;;;;;;5052471;28;20044;-80
2022/09/08 05:16:25;;;;;;;3.50;2.95;;;17.30;99.90;;;;;;5053357;28;20135;-80
2022/09/08 05:18:54;;;;;;;3.40;3.10;;;17.30;99.90;;;;;;5053237;28;20048;-81
2022/09/08 05:21:20;;;;;;;2.40;2.20;;;17.40;99.90;;;;;;5053214;28;20506;-73
2022/09/08 05:23:49;;;;;;;3.10;2.80;;;17.50;99.90;;;;;;5071320;28;20392;-73
2022/09/08 05:26:16;;;;;;;2.78;2.58;;;17.40;99.90;;;;;;5036368;28;20076;-80
2022/09/08 05:28:43;;;;;;;2.33;2.13;;;17.40;99.90;;;;;;5053305;28;20040;-80
2022/09/08 05:31:12;;;;;;;2.28;2.08;;;17.50;99.90;;;;;;5037027;28;20062;-80
2022/09/08 05:33:38;;;;;;;2.70;2.50;;;17.40;99.90;;;;;;5053472;28;20036;-81
2022/09/08 05:36:12;;;;;;;;;;;17.40;99.90;;;;;;5053859;28;20396;-80
2022/09/08 05:38:38;;;;;;;2.25;1.90;;;17.40;99.90;;;;;;5036715;28;19978;-82
2022/09/08 05:41:04;;;;;;;4.00;2.58;;;17.40;99.90;;;;;;5052921;28;20869;-80
2022/09/08 05:43:30;;;;;;;;;;;17.50;99.90;;;;;;5053618;28;20101;-73
2022/09/08 05:45:55;;;;;;;1.50;1.40;;;17.50;99.90;;;;;;5036043;28;19928;-81
2022/09/08 05:48:21;;;;;;;;;;;17.50;99.90;;;;;;5053664;28;20045;-81
2022/09/08 05:50:46;;;;;;;2.13;1.92;;;17.50;99.90;;;;;;5053029;28;19920;-81
2022/09/08 05:53:14;;;;;;;1.85;1.60;;;17.40;99.90;;;;;;5052986;28;20045;-82
2022/09/08 05:55:41;;;;;;;2.42;2.17;;;17.50;99.90;;;;;;5070769;28;20046;-81
2022/09/08 05:58:13;;;;;;;1.90;1.80;;;17.40;99.90;;;;;;5052601;28;20052;-81
2022/09/08 06:00:38;;;;;;;1.30;1.20;;;17.40;99.90;;;;;;5052718;28;20044;-81
2022/09/08 06:03:04;;;;;;;;;;;17.60;99.90;;;;;;5053131;28;20049;-81
2022/09/08 06:05:30;;;;;;;2.10;1.88;;;17.60;99.90;;;;;;5052682;28;19920;-81
2022/09/08 06:07:55;;;;;;;;;;;17.60;99.90;;;;;;5036538;28;20049;-81
2022/09/08 06:10:21;;;;;;;1.70;1.60;;;17.50;99.90;;;;;;5052721;28;20016;-80
2022/09/08 06:12:47;;;;;;;;;;;17.50;99.90;;;;;;5053048;28;20033;-80
2022/09/08 06:15:12;;;;;;;1.60;1.40;;;17.50;99.90;;;;;;5052495;28;19920;-80
2022/09/08 06:17:38;;;;;;;2.22;2.03;;;17.60;99.90;;;;;;5036488;28;20044;-81
2022/09/08 06:20:05;;;;;;;2.20;2.00;;;17.60;99.90;;;;;;5052619;28;20044;-81
2022/09/08 06:22:32;;;;;;;1.63;1.52;;;17.50;99.90;;;;;;5052976;28;20043;-81
2022/09/08 06:24:59;;;;;;;2.38;2.17;;;17.60;99.90;;;;;;5020161;28;20045;-81
2022/09/08 06:27:55;;;;;;;3.03;2.60;;;17.60;99.90;;;;;;5039972;28;20059;-80
2022/09/08 06:30:21;;;;;;;2.38;2.17;;;17.60;99.90;;;;;;5074418;28;20541;-82
2022/09/08 06:32:48;;;;;;;;;;;17.70;99.90;;;;;;5040165;28;20119;-81
2022/09/08 06:35:45;;;;;;;2.58;2.38;;;17.70;99.90;;;;;;5056373;28;19920;-80
2022/09/08 06:38:14;;;;;;;3.60;3.30;;;17.60;99.90;;;;;;5043014;28;20049;-81
2022/09/08 06:40:49;;;;;;;6.53;5.88;;;17.60;99.90;;;;;;5056433;28;20059;-81
2022/09/08 06:43:32;;;;;;;9.85;8.93;;;17.60;99.90;;;;;;5074297;28;20041;-81
2022/09/08 06:46:04;;;;;;;8.13;7.32;;;17.60;99.90;;;;;;5039379;28;20052;-81
2022/09/08 06:48:34;;;;;;;5.70;5.20;;;17.40;99.90;;;;;;5039616;28;20514;-82
2022/09/08 06:51:09;;;;;;;8.18;7.38;;;17.40;99.90;;;;;;5056158;28;20094;-81
2022/09/08 06:53:48;;;;;;;7.40;6.60;;;17.30;99.90;;;;;;5056297;28;20391;-80
2022/09/08 06:56:25;;;;;;;4.43;4.03;;;17.40;99.90;;;;;;5056052;28;20103;-81
2022/09/08 06:59:01;;;;;;;3.30;2.90;;;17.40;99.90;;;;;;5074183;28;20051;-81
2022/09/08 07:01:43;;;;;;;3.28;2.97;;;17.40;99.90;;;;;;5055973;28;20044;-80
2022/09/08 07:04:29;;;;;;;4.30;3.90;;;17.30;99.90;;;;;;5056090;28;20124;-81
2022/09/08 07:07:08;;;;;;;6.32;5.70;;;17.40;99.90;;;;;;5056021;28;20634;-73
2022/09/08 07:09:56;;;;;;;5.13;4.57;;;17.30;99.90;;;;;;5039575;28;20044;-81
2022/09/08 07:12:45;;;;;;;4.40;4.00;;;17.30;99.90;;;;;;5055746;28;20040;-79
2022/09/08 07:15:32;;;;;;;4.45;4.05;;;17.30;99.90;;;;;;5055457;28;20530;-73
2022/09/08 07:18:15;;;;;;;3.25;2.95;;;17.40;99.90;;;;;;5055554;28;20527;-73
2022/09/08 07:20:40;;;;;;;5.10;4.60;;;17.20;99.90;;;;;;5055564;28;20044;-73
2022/09/08 07:23:15;;;;;;;3.88;3.55;;;17.00;99.90;;;;;;5055777;28;20036;-73
2022/09/08 07:25:53;;;;;;;4.68;4.15;;;17.30;99.90;;;;;;5038790;28;20059;-73
2022/09/08 07:28:27;;;;;;;4.60;4.10;;;17.20;99.90;;;;;;5038764;28;20051;-73
2022/09/08 07:31:04;;;;;;;4.68;4.20;;;17.20;99.90;;;;;;5055392;28;20541;-73
2022/09/08 07:33:45;;;;;;;3.78;3.20;;;17.20;99.90;;;;;;5055518;28;20044;-73
2022/09/08 07:36:34;;;;;;;3.75;3.45;;;16.90;99.90;;;;;;5054994;28;20053;-73
2022/09/08 07:39:10;;;;;;;5.13;4.63;;;16.80;99.90;;;;;;5037947;28;20518;-73
2022/09/08 07:41:48;;;;;;;4.00;3.60;;;17.20;99.90;;;;;;5055275;28;20121;-73
2022/09/08 07:44:16;;;;;;;3.67;3.33;;;17.10;99.90;;;;;;5054942;28;20126;-73
2022/09/08 07:46:51;;;;;;;5.32;4.70;;;17.10;99.90;;;;;;5054850;28;20504;-73
2022/09/08 07:49:41;;;;;;;4.78;4.38;;;16.80;99.90;;;;;;5054896;28;20049;-74
2022/09/08 07:52:15;;;;;;;6.97;5.60;;;17.10;99.90;;;;;;5038292;28;20055;-73
2022/09/08 07:54:51;;;;;;;7.70;7.00;;;17.10;99.90;;;;;;5054775;28;20186;-74
2022/09/08 07:57:38;;;;;;;8.75;7.95;;;17.20;99.90;;;;;;5055050;28;20075;-74
2022/09/08 08:00:34;;;;;;;6.80;6.20;;;16.90;99.90;;;;;;5054958;28;20111;-74
2022/09/08 08:03:13;;;;;;;5.70;5.07;;;17.10;99.90;;;;;;5054968;28;20443;-73
2022/09/08 08:05:47;;;;;;;7.10;6.40;;;17.00;99.90;;;;;;5054589;28;20583;-74
2022/09/08 08:08:23;;;;;;;6.00;5.40;;;17.10;99.90;;;;;;5054753;28;20045;-74
2022/09/08 08:10:59;;;;;;;;;;;16.40;99.90;;;;;;5055167;28;20131;-74
2022/09/08 08:13:58;;;;;;;8.27;7.47;;;16.80;99.90;;;;;;5054467;28;19920;-74
2022/09/08 08:16:49;;;;;;;4.78;4.28;;;16.50;99.90;;;;;;5054327;28;20051;-74
2022/09/08 08:19:41;;;;;;;3.97;3.58;;;16.90;99.90;;;;;;5054347;28;20565;-74
2022/09/08 08:22:30;;;;;;;4.20;3.83;;;16.30;99.90;;;;;;5041381;28;20071;-75
2022/09/08 08:25:18;;;;;;;3.78;3.42;;;17.30;99.90;;;;;;5054361;28;20071;-74
2022/09/08 08:28:14;;;;;;;3.08;2.78;;;16.80;99.90;;;;;;5054095;28;20048;-74
2022/09/08 08:31:11;;;;;;;2.80;2.60;;;16.60;99.90;;;;;;5037818;28;20086;-74
2022/09/08 08:33:48;;;;;;;2.60;1.80;;;16.60;99.90;;;;;;5054277;28;20044;-73
2022/09/08 08:36:18;;;;;;;2.35;2.00;;;17.30;99.90;;;;;;5054281;28;20104;-75
2022/09/08 08:39:16;;;;;;;2.35;2.15;;;16.30;99.90;;;;;;5037223;28;20451;-74
2022/09/08 08:41:45;;;;;;;2.78;2.38;;;17.40;99.90;;;;;;5027002;28;20052;-74
2022/09/08 08:44:34;;;;;;;2.40;1.90;;;17.10;99.90;;;;;;5053801;28;20514;-74
2022/09/08 08:47:19;;;;;;;1.98;1.60;;;16.20;99.90;;;;;;5053938;28;20052;-74
2022/09/08 08:50:14;;;;;;;4.30;2.50;;;17.60;99.90;;;;;;5053858;28;20048;-74
2022/09/08 08:53:00;;;;;;;2.95;2.20;;;16.30;99.90;;;;;;5053732;28;20056;-75
2022/09/08 08:55:59;;;;;;;2.83;2.50;;;16.70;99.90;;;;;;5053435;28;20561;-74
2022/09/08 08:59:00;;;;;;;2.10;1.90;;;17.20;99.90;;;;;;5053596;28;20059;-75
2022/09/08 09:01:38;;;;;;;2.80;2.55;;;16.30;99.90;;;;;;5053666;28;20115;-74
2022/09/08 09:04:38;;;;;;;2.60;2.40;;;17.20;99.90;;;;;;5053490;28;20051;-75
2022/09/08 09:07:32;;;;;;;3.60;2.70;;;17.60;99.90;;;;;;5053748;28;20467;-75
2022/09/08 09:10:06;;;;;;;3.90;3.20;;;17.00;99.90;;;;;;5053610;28;20045;-75
2022/09/08 09:13:00;;;;;;;2.97;2.60;;;16.90;99.90;;;;;;5036893;28;20067;-75
2022/09/08 09:15:47;;;;;;;5.00;4.18;;;17.90;99.90;;;;;;5071535;28;20040;-74
2022/09/08 09:18:18;;;;;;;4.20;3.80;;;17.30;99.90;;;;;;5053658;28;20524;-75
2022/09/08 09:21:00;;;;;;;3.90;3.13;;;17.00;99.90;;;;;;5053656;28;20052;-75
2022/09/08 09:23:37;;;;;;;6.68;5.97;;;18.00;99.90;;;;;;5053392;28;20123;-74
2022/09/08 09:26:11;;;;;;;;;;;17.90;99.90;;;;;;5053664;28;20082;-74
2022/09/08 09:28:58;;;;;;;6.40;5.80;;;16.80;99.90;;;;;;5053147;28;20444;-74
2022/09/08 09:31:53;;;;;;;4.38;3.97;;;16.50;99.90;;;;;;5053251;28;20041;-75
2022/09/08 09:34:34;;;;;;;6.30;5.70;;;16.50;99.90;;;;;;5053074;28;20047;-75
2022/09/08 09:37:25;;;;;;;4.10;3.70;;;17.90;99.90;;;;;;5053181;28;20079;-75
2022/09/08 09:39:59;;;;;;;3.75;2.90;;;16.80;99.90;;;;;;5052848;28;20049;-74
2022/09/08 09:42:33;;;;;;;3.30;3.00;;;18.10;99.90;;;;;;5053222;28;20044;-73
2022/09/08 09:45:38;;;;;;;3.40;3.10;;;16.50;99.90;;;;;;5052766;28;20056;-74
2022/09/08 09:48:25;;;;;;;4.50;4.10;;;17.60;99.90;;;;;;4953827;28;20047;-74
2022/09/08 09:51:05;;;;;;;5.60;5.10;;;17.00;99.90;;;;;;4937789;28;20601;-73
2022/09/08 09:53:43;;;;;;;6.30;5.70;;;16.50;99.90;;;;;;5024263;28;20045;-73
2022/09/08 09:56:23;;;;;;;5.30;4.80;;;16.80;99.90;;;;;;5035917;28;20049;-74
2022/09/08 09:59:20;;;;;;;5.30;4.80;;;16.70;99.90;;;;;;5052705;28;20154;-74
2022/09/08 10:01:58;;;;;;;4.63;3.97;;;16.70;99.90;;;;;;5052381;28;20036;-74
2022/09/08 10:04:39;;;;;;;3.45;3.15;;;17.90;99.90;;;;;;5052605;28;20124;-74
2022/09/08 10:07:23;;;;;;;3.13;2.83;;;17.40;99.90;;;;;;5052563;28;20048;-73
2022/09/08 10:10:11;;;;;;;4.10;3.70;;;17.80;99.90;;;;;;5053048;28;20137;-73
2022/09/08 10:13:14;;;;;;;4.03;3.63;;;17.30;99.90;;;;;;5052843;28;20423;-74
2022/09/08 10:16:17;;;;;;;2.92;2.63;;;17.80;99.90;;;;;;5052721;28;20044;-74
2022/09/08 10:19:01;;;;;;;3.20;2.30;;;17.20;99.90;;;;;;5035983;28;20044;-74
2022/09/08 10:21:27;;;;;;;2.20;2.00;;;16.50;99.90;;;;;;5052762;28;20052;-74
2022/09/08 10:24:39;;;;;;;2.40;2.00;;;17.70;99.90;;;;;;5052574;28;20333;-74
2022/09/08 10:27:24;;;;;;;1.85;1.70;;;17.60;99.90;;;;;;5052479;28;20131;-74
2022/09/08 10:30:25;;;;;;;1.50;1.40;;;16.50;99.90;;;;;;5035914;28;20047;-74
2022/09/08 10:33:18;;;;;;;1.30;1.20;;;17.30;99.90;;;;;;4953202;28;20047;-74
2022/09/08 10:35:52;;;;;;;1.10;1.00;;;16.70;99.90;;;;;;5049946;28;20060;-74
2022/09/08 10:38:41;;;;;;;1.02;0.93;;;16.50;99.90;;;;;;5052117;28;20377;-73
2022/09/08 10:41:39;;;;;;;0.88;0.88;;;17.80;99.90;;;;;;5052207;28;20055;-74
2022/09/08 10:44:26;;;;;;;0.70;0.70;;;17.90;99.90;;;;;;5034158;28;20048;-73
2022/09/08 10:47:22;;;;;;;0.68;0.68;;;16.90;99.90;;;;;;5052484;28;20052;-73
2022/09/08 10:50:12;;;;;;;0.65;0.60;;;16.70;99.90;;;;;;5052555;28;20460;-73
2022/09/08 10:52:56;;;;;;;0.60;0.60;;;17.80;99.90;;;;;;5035516;28;20071;-74
2022/09/08 10:55:47;;;;;;;0.60;0.60;;;17.80;99.90;;;;;;5052090;28;20036;-74
2022/09/08 10:58:35;;;;;;;0.73;0.60;;;16.50;99.90;;;;;;5008283;28;20127;-74
2022/09/08 11:01:21;;;;;;;;;;;16.40;99.90;;;;;;5035987;28;20495;-74
2022/09/08 11:03:59;;;;;;;0.60;0.50;;;17.50;99.90;;;;;;5052028;28;20406;-74
2022/09/08 11:06:36;;;;;;;0.45;0.45;;;17.20;99.90;;;;;;5051945;28;20063;-74
2022/09/08 11:09:16;;;;;;;0.57;0.30;;;17.40;99.90;;;;;;5051997;28;20517;-74
2022/09/08 11:12:08;;;;;;;0.40;0.40;;;17.40;99.90;;;;;;5051943;28;20062;-73
2022/09/08 11:14:54;;;;;;;0.40;0.40;;;17.60;99.90;;;;;;5055832;28;20082;-74
2022/09/08 11:17:26;;;;;;;0.40;0.40;;;16.30;99.90;;;;;;5055912;28;20372;-74
2022/09/08 11:20:16;;;;;;;0.47;0.47;;;16.30;99.90;;;;;;5038979;28;20487;-74
2022/09/08 11:23:06;;;;;;;0.57;0.50;;;16.40;99.90;;;;;;5038793;28;20045;-74
2022/09/08 11:26:09;;;;;;;0.80;0.75;;;16.60;99.90;;;;;;5055559;28;20041;-74
2022/09/08 11:28:50;;;;;;;0.50;0.50;;;16.30;99.90;;;;;;5055286;28;20044;-74
2022/09/08 11:32:01;;;;;;;0.55;0.50;;;16.90;99.90;;;;;;5055135;28;20484;-74
2022/09/08 11:34:38;;;;;;;0.40;0.40;;;17.30;99.90;;;;;;4972334;28;20129;-75
2022/09/08 11:37:25;;;;;;;0.40;0.40;;;16.30;99.90;;;;;;4956187;28;20038;-74
2022/09/08 11:40:06;;;;;;;0.45;0.40;;;16.80;99.90;;;;;;5033807;28;20052;-75
2022/09/08 11:42:56;;;;;;;0.75;0.43;;;17.50;99.90;;;;;;5054987;28;20123;-74
2022/09/08 11:45:48;;;;;;;0.50;0.40;;;16.60;99.90;;;;;;5054705;28;20148;-73
2022/09/08 11:48:30;;;;;;;0.35;0.30;;;16.20;99.90;;;;;;5038337;28;20530;-73
2022/09/08 11:51:10;;;;;;;0.73;0.30;;;16.20;99.90;;;;;;5054924;28;20044;-73
2022/09/08 11:53:35;;;;;;;0.75;0.43;;;17.00;99.90;;;;;;5055152;28;20074;-73
2022/09/08 11:56:01;;;;;;;0.20;0.20;;;17.30;99.90;;;;;;5054936;28;20048;-73
2022/09/08 11:58:49;;;;;;;0.20;0.20;;;17.20;99.90;;;;;;5038247;28;20048;-73
2022/09/08 12:01:34;;;;;;;0.20;0.20;;;16.30;99.90;;;;;;5055028;28;20091;-74
2022/09/08 12:04:31;;;;;;;0.10;0.10;;;16.70;99.90;;;;;;5054786;28;20483;-74
2022/09/08 12:07:05;;;;;;;0.17;0.17;;;16.10;99.90;;;;;;5054392;28;20076;-74
2022/09/08 12:09:43;;;;;;;0.55;0.38;;;16.10;99.90;;;;;;5054526;28;20047;-74
2022/09/08 12:12:15;;;;;;;0.20;0.20;;;16.10;99.90;;;;;;5054624;28;20036;-73
2022/09/08 12:15:02;;;;;;;0.30;0.22;;;17.10;99.90;;;;;;5054683;28;20055;-73
2022/09/08 12:17:49;;;;;;;0.30;0.30;;;17.10;99.90;;;;;;5054428;28;20041;-74
2022/09/08 12:20:33;;;;;;;;;;;16.40;99.90;;;;;;5038033;28;20091;-74
2022/09/08 12:23:24;;;;;;;0.68;0.40;;;16.20;99.90;;;;;;5037164;28;19971;-74
2022/09/08 12:26:23;;;;;;;1.35;0.50;;;17.30;99.90;;;;;;5054254;28;20044;-73
2022/09/08 12:29:08;;;;;;;0.70;0.40;;;16.60;99.90;;;;;;5037801;28;20353;-74
2022/09/08 12:31:55;;;;;;;0.93;0.60;;;17.30;99.90;;;;;;5054012;28;20044;-73
2022/09/08 12:34:30;;;;;;;;;;;16.10;99.90;;;;;;5054817;28;20064;-73
2022/09/08 12:37:26;;;;;;;0.82;0.57;;;17.00;99.90;;;;;;5037359;28;19920;-74
2022/09/08 12:40:20;;;;;;;0.52;0.50;;;17.20;99.90;;;;;;5053317;28;20057;-74
2022/09/08 12:43:04;;;;;;;0.50;0.30;;;17.20;99.90;;;;;;5037430;28;20102;-74
2022/09/08 12:45:50;;;;;;;0.73;0.45;;;16.70;99.90;;;;;;5053761;28;20052;-74
2022/09/08 12:48:43;;;;;;;0.70;0.50;;;17.30;99.90;;;;;;5054019;28;20109;-74
2022/09/08 12:51:22;;;;;;;0.70;0.40;;;16.50;99.90;;;;;;5054074;28;20287;-74
2022/09/08 12:54:12;;;;;;;0.38;0.38;;;17.30;99.90;;;;;;5053751;28;20068;-74
2022/09/08 12:57:06;;;;;;;1.27;0.50;;;16.70;99.90;;;;;;5053536;28;20067;-74
2022/09/08 12:59:38;;;;;;;0.30;0.30;;;17.30;99.90;;;;;;5053666;28;20048;-73
2022/09/08 13:02:23;;;;;;;0.57;0.40;;;16.50;99.90;;;;;;5037327;28;20048;-73
2022/09/08 13:05:19;;;;;;;0.73;0.40;;;17.40;99.90;;;;;;5053451;28;20052;-74
2022/09/08 13:08:15;;;;;;;0.85;0.40;;;17.10;99.90;;;;;;5053712;28;20049;-74
2022/09/08 13:10:45;;;;;;;0.70;0.30;;;16.50;99.90;;;;;;5036750;28;20040;-74
2022/09/08 13:13:32;;;;;;;0.68;0.40;;;17.20;99.90;;;;;;5036773;28;20075;-73
2022/09/08 13:16:07;;;;;;;0.55;0.40;;;16.50;99.90;;;;;;5053460;28;20052;-74
2022/09/08 13:19:04;;;;;;;0.35;0.30;;;16.90;99.90;;;;;;5053521;28;20089;-73
2022/09/08 13:21:39;;;;;;;0.57;0.50;;;17.30;99.90;;;;;;4999076;28;20181;-74
2022/09/08 13:24:30;;;;;;;0.60;0.40;;;16.80;99.90;;;;;;5053128;28;20063;-74
2022/09/08 13:27:30;;;;;;;0.63;0.30;;;17.00;99.90;;;;;;5053097;28;20055;-74
2022/09/08 13:30:12;;;;;;;0.50;0.40;;;17.60;99.90;;;;;;5053081;28;20127;-74
2022/09/08 13:32:47;;;;;;;0.82;0.50;;;16.90;99.90;;;;;;5053328;28;20029;-74
2022/09/08 13:35:22;;;;;;;0.30;0.30;;;17.30;99.90;;;;;;5052572;28;20427;-74
2022/09/08 13:38:06;;;;;;;0.60;0.50;;;17.20;99.90;;;;;;5053035;28;20496;-73
2022/09/08 13:40:46;;;;;;;0.50;0.40;;;17.50;99.90;;;;;;5052920;28;20060;-73
2022/09/08 13:43:42;;;;;;;0.43;0.32;;;17.60;99.90;;;;;;5052825;28;20113;-73